createdAt,value
2023-04-12T00:02:44.978Z,71.24
2023-04-12T00:05:54.847Z,70.56
2023-04-12T00:09:00.684Z,70.69
2023-04-12T00:12:06.274Z,70.88
2023-04-12T00:15:11.815Z,70.57
2023-04-12T00:18:15.731Z,70.20
2023-04-12T00:21:20.036Z,70.70
2023-04-12T00:24:27.311Z,71.17
2023-04-12T00:27:31.004Z,71.04
2023-04-12T00:30:34.855Z,71.18
2023-04-12T00:33:38.689Z,71.42
2023-04-12T00:36:42.174Z,70.71
2023-04-12T00:39:48.744Z,71.28
2023-04-12T00:42:52.380Z,70.73
2023-04-12T00:45:59.724Z,70.69
2023-04-12T00:49:04.851Z,70.64
2023-04-12T00:52:11.294Z,70.58
2023-04-12T00:55:17.175Z,71.35
2023-04-12T00:58:21.666Z,70.56
2023-04-12T01:01:25.536Z,70.45
2023-04-12T01:04:30.113Z,70.40
2023-04-12T01:07:51.405Z,70.86
2023-04-12T01:11:07.284Z,70.96
2023-04-12T01:14:30.780Z,71.39
2023-04-12T01:17:45.726Z,71.21
2023-04-12T01:20:57.702Z,70.89
2023-04-12T01:24:29.116Z,72.17
2023-04-12T01:27:44.952Z,70.56
2023-04-12T01:30:52.187Z,70.75
2023-04-12T01:34:01.010Z,70.57
2023-04-12T01:37:07.859Z,70.92
2023-04-12T01:40:13.982Z,70.95
2023-04-12T01:43:19.418Z,71.25
2023-04-12T01:46:25.151Z,71.24
2023-04-12T01:49:44.244Z,71.16
2023-04-12T01:53:00.624Z,71.36
2023-04-12T01:56:10.747Z,71.24
2023-04-12T01:59:17.663Z,71.68
2023-04-12T02:02:22.131Z,71.17
2023-04-12T02:05:27.234Z,71.29
2023-04-12T02:08:32.012Z,71.15
2023-04-12T02:11:36.243Z,71.63
2023-04-12T02:14:41.742Z,71.50
2023-04-12T02:17:46.231Z,71.22
2023-04-12T02:20:51.126Z,71.20
2023-04-12T02:23:55.173Z,71.57
2023-04-12T02:27:01.372Z,71.04
2023-04-12T02:30:09.024Z,71.35
2023-04-12T02:33:13.496Z,72.19
2023-04-12T02:36:19.296Z,71.66
2023-04-12T02:39:23.429Z,71.62
2023-04-12T02:42:29.190Z,71.55
2023-04-12T02:45:34.926Z,72.18
2023-04-12T02:48:38.809Z,72.26
2023-04-12T02:51:42.926Z,72.58
2023-04-12T02:54:47.983Z,71.11
2023-04-12T02:57:53.762Z,71.98
2023-04-12T03:01:00.268Z,71.69
2023-04-12T03:04:09.275Z,71.58
2023-04-12T03:07:22.838Z,72.29
2023-04-12T03:10:28.622Z,71.48
2023-04-12T03:13:38.595Z,71.54
2023-04-12T03:16:44.399Z,72.12
2023-04-12T03:19:52.487Z,71.35
2023-04-12T03:22:57.808Z,72.28
2023-04-12T03:26:01.743Z,72.35
2023-04-12T03:29:11.330Z,71.91
2023-04-12T03:32:18.064Z,71.74
2023-04-12T03:35:23.774Z,72.48
2023-04-12T03:38:28.679Z,71.88
2023-04-12T03:41:33.275Z,72.17
2023-04-12T03:44:40.669Z,71.66
2023-04-12T03:47:49.912Z,71.74
2023-04-12T03:50:55.726Z,71.29
2023-04-12T03:54:02.992Z,71.89
2023-04-12T03:57:13.087Z,71.70
2023-04-12T04:00:22.792Z,72.36
2023-04-12T04:03:41.123Z,72.02
2023-04-12T04:06:56.661Z,72.27
2023-04-12T04:10:02.907Z,72.44
2023-04-12T04:13:12.172Z,72.67
2023-04-12T04:16:16.409Z,71.67
2023-04-12T04:19:21.619Z,71.81
2023-04-12T04:22:25.575Z,72.29
2023-04-12T04:25:31.375Z,72.74
2023-04-12T04:28:39.591Z,72.19
2023-04-12T04:31:46.093Z,72.21
2023-04-12T04:34:52.649Z,71.93
2023-04-12T04:37:56.570Z,72.68
2023-04-12T04:41:04.566Z,71.82
2023-04-12T04:44:22.507Z,72.88
2023-04-12T04:47:32.317Z,72.39
2023-04-12T04:50:37.538Z,71.99
2023-04-12T04:53:41.938Z,71.83
2023-04-12T04:56:48.503Z,71.40
2023-04-12T04:59:54.396Z,71.28
2023-04-12T05:02:58.206Z,71.07
2023-04-12T05:06:06.518Z,72.70
2023-04-12T05:09:11.272Z,71.74
2023-04-12T05:12:20.943Z,72.21
2023-04-12T05:15:31.275Z,72.47
2023-04-12T05:18:34.808Z,71.93
2023-04-12T05:21:40.035Z,72.07
2023-04-12T05:24:43.411Z,71.54
2023-04-12T05:27:47.297Z,72.18
2023-04-12T05:30:54.109Z,72.02
2023-04-12T05:34:02.440Z,71.98
2023-04-12T05:37:12.197Z,71.57
2023-04-12T05:40:16.108Z,71.57
2023-04-12T05:43:20.070Z,71.87
2023-04-12T05:46:23.946Z,71.92
2023-04-12T05:49:31.311Z,71.88
2023-04-12T05:52:38.520Z,71.90
2023-04-12T05:55:43.612Z,71.55
2023-04-12T05:58:48.282Z,71.60
2023-04-12T06:01:52.270Z,71.35
2023-04-12T06:04:59.342Z,71.47
2023-04-12T06:08:06.399Z,71.85
2023-04-12T06:11:12.173Z,71.24
2023-04-12T06:14:16.340Z,71.59
2023-04-12T06:17:22.018Z,71.93
2023-04-12T06:20:25.744Z,71.92
2023-04-12T06:23:31.396Z,72.24
2023-04-12T06:26:39.807Z,70.84
2023-04-12T06:29:45.223Z,71.80
2023-04-12T06:32:48.966Z,71.53
2023-04-12T06:35:52.621Z,71.88
2023-04-12T06:38:58.211Z,71.61
2023-04-12T06:42:02.236Z,71.03
2023-04-12T06:45:07.317Z,71.14
2023-04-12T06:48:11.335Z,71.13
2023-04-12T06:51:14.914Z,71.50
2023-04-12T06:54:20.209Z,70.44
2023-04-12T06:57:23.789Z,71.27
2023-04-12T07:00:28.063Z,71.40
2023-04-12T07:03:33.305Z,70.46
2023-04-12T07:06:37.220Z,71.41
2023-04-12T07:09:43.034Z,70.38
2023-04-12T07:12:46.829Z,70.25
2023-04-12T07:15:51.724Z,70.05
2023-04-12T07:18:55.758Z,70.22
2023-04-12T07:21:59.793Z,69.37
2023-04-12T07:25:10.418Z,69.61
2023-04-12T07:28:14.009Z,69.95
2023-04-12T07:31:17.736Z,69.57
2023-04-12T07:34:21.260Z,68.75
2023-04-12T07:37:25.322Z,69.12
2023-04-12T07:40:30.214Z,68.93
2023-04-12T07:43:34.038Z,68.87
2023-04-12T07:46:37.483Z,68.85
2023-04-12T07:49:41.395Z,68.78
2023-04-12T07:52:44.922Z,68.38
2023-04-12T07:55:51.486Z,68.02
2023-04-12T07:58:55.342Z,67.99
2023-04-12T08:01:59.559Z,67.04
2023-04-12T08:05:03.381Z,66.86
2023-04-12T08:08:09.925Z,66.58
2023-04-12T08:11:14.905Z,67.41
2023-04-12T08:14:18.688Z,66.83
2023-04-12T08:17:22.369Z,67.28
2023-04-12T08:20:26.274Z,67.71
2023-04-12T08:23:30.044Z,67.97
2023-04-12T08:26:35.352Z,67.80
2023-04-12T08:29:38.774Z,67.50
2023-04-12T08:32:43.615Z,67.44
2023-04-12T08:35:47.135Z,66.86
2023-04-12T08:38:52.713Z,66.74
2023-04-12T08:41:58.517Z,66.92
2023-04-12T08:45:06.528Z,65.93
2023-04-12T08:48:11.174Z,65.92
2023-04-12T08:51:17.156Z,64.89
2023-04-12T08:54:20.847Z,65.08
2023-04-12T08:57:27.074Z,65.34
2023-04-12T09:00:30.860Z,65.04
2023-04-12T09:03:34.987Z,64.54
2023-04-12T09:06:38.838Z,64.56
2023-04-12T09:09:43.809Z,64.72
2023-04-12T09:12:50.952Z,64.49
2023-04-12T09:15:56.052Z,64.01
2023-04-12T09:19:02.566Z,63.54
2023-04-12T09:22:06.289Z,63.24
2023-04-12T09:25:10.465Z,62.64
2023-04-12T09:28:24.219Z,62.03
2023-04-12T09:31:27.885Z,63.21
2023-04-12T09:34:33.809Z,62.33
2023-04-12T09:37:37.914Z,62.52
2023-04-12T09:40:41.839Z,62.48
2023-04-12T09:43:47.022Z,61.65
2023-04-12T09:46:53.404Z,61.04
2023-04-12T09:49:57.306Z,60.96
2023-04-12T09:53:03.057Z,60.96
2023-04-12T09:56:10.647Z,61.02
2023-04-12T09:59:17.965Z,60.32
2023-04-12T10:02:29.362Z,59.66
2023-04-12T10:05:34.029Z,59.83
2023-04-12T10:08:39.574Z,58.95
2023-04-12T10:11:46.518Z,58.59
2023-04-12T10:14:54.100Z,56.78
2023-04-12T10:17:58.184Z,58.03
2023-04-12T10:21:03.100Z,58.36
2023-04-12T10:24:08.851Z,58.10
2023-04-12T10:27:15.457Z,57.86
2023-04-12T10:30:29.919Z,56.90
2023-04-12T10:33:33.888Z,56.77
2023-04-12T10:36:54.282Z,55.85
2023-04-12T10:39:57.964Z,56.94
2023-04-12T10:43:27.909Z,55.96
2023-04-12T10:46:51.988Z,55.59
2023-04-12T10:50:25.202Z,55.49
2023-04-12T10:53:31.646Z,55.92
2023-04-12T10:56:41.361Z,55.04
2023-04-12T10:59:57.075Z,54.08
2023-04-12T11:03:13.589Z,53.96
2023-04-12T11:06:27.223Z,54.48
2023-04-12T11:09:51.955Z,54.84
2023-04-12T11:13:10.704Z,54.89
2023-04-12T11:16:14.728Z,54.94
2023-04-12T11:19:20.794Z,53.48
2023-04-12T11:22:27.638Z,54.55
2023-04-12T11:25:32.965Z,54.38
2023-04-12T11:28:36.759Z,54.32
2023-04-12T11:31:40.577Z,53.97
2023-04-12T11:34:48.272Z,53.82
2023-04-12T11:37:52.334Z,54.27
2023-04-12T11:40:57.554Z,54.12
2023-04-12T11:44:01.536Z,54.08
2023-04-12T11:47:08.481Z,54.19
2023-04-12T11:50:13.707Z,53.97
2023-04-12T11:53:19.592Z,53.51
2023-04-12T11:56:24.018Z,53.24
2023-04-12T11:59:34.299Z,53.11
2023-04-12T12:02:46.516Z,53.49
2023-04-12T12:06:01.741Z,53.46
2023-04-12T12:09:05.655Z,52.72
2023-04-12T12:12:11.277Z,52.86
2023-04-12T12:15:16.669Z,52.41
2023-04-12T12:18:21.176Z,52.48
2023-04-12T12:21:27.795Z,53.02
2023-04-12T12:24:32.250Z,52.70
2023-04-12T12:27:38.688Z,51.99
2023-04-12T12:30:42.803Z,51.95
2023-04-12T12:33:47.534Z,51.76
2023-04-12T12:36:57.234Z,50.60
2023-04-12T12:40:11.498Z,51.79
2023-04-12T12:43:20.636Z,50.84
2023-04-12T12:46:24.426Z,50.18
2023-04-12T12:49:28.384Z,48.93
2023-04-12T12:52:34.027Z,42.59
2023-04-12T12:55:37.931Z,37.77
2023-04-12T12:58:42.451Z,34.88
2023-04-12T13:01:46.981Z,35.09
2023-04-12T13:04:50.740Z,38.26
2023-04-12T13:07:56.180Z,40.34
2023-04-12T13:10:59.705Z,41.52
2023-04-12T13:14:03.511Z,40.66
2023-04-12T13:17:07.092Z,40.73
2023-04-12T13:20:11.737Z,40.87
2023-04-12T13:23:16.737Z,42.22
2023-04-12T13:26:20.983Z,42.96
2023-04-12T13:29:24.844Z,43.97
2023-04-12T13:32:28.864Z,44.29
2023-04-12T13:35:32.407Z,44.57
2023-04-12T13:38:37.964Z,44.68
2023-04-12T13:41:42.030Z,44.32
2023-04-12T13:44:46.042Z,44.11
2023-04-12T13:47:49.722Z,43.36
2023-04-12T13:50:55.536Z,42.69
2023-04-12T13:54:01.863Z,35.58
2023-04-12T13:57:06.058Z,36.41
2023-04-12T14:00:11.482Z,37.80
2023-04-12T14:03:15.555Z,38.80
2023-04-12T14:06:19.088Z,39.38
2023-04-12T14:09:28.893Z,39.47
2023-04-12T14:12:32.588Z,39.47
2023-04-12T14:15:36.906Z,39.91
2023-04-12T14:18:40.709Z,40.07
2023-04-12T14:21:44.548Z,40.56
2023-04-12T14:24:49.985Z,39.02
2023-04-12T14:27:53.945Z,35.97
2023-04-12T14:30:58.025Z,31.63
2023-04-12T14:34:01.860Z,29.75
2023-04-12T14:37:05.824Z,28.26
2023-04-12T14:40:11.625Z,26.86
2023-04-12T14:43:15.936Z,27.92
2023-04-12T14:46:20.244Z,30.71
2023-04-12T14:49:24.000Z,32.53
2023-04-12T14:52:28.241Z,30.20
2023-04-12T14:55:34.133Z,27.55
2023-04-12T14:58:38.393Z,26.14
2023-04-12T15:01:42.799Z,25.45
2023-04-12T15:04:49.498Z,24.99
2023-04-12T15:07:53.910Z,26.47
2023-04-12T15:10:59.306Z,28.71
2023-04-12T15:14:03.538Z,31.06
2023-04-12T15:17:07.197Z,30.78
2023-04-12T15:20:13.291Z,28.44
2023-04-12T15:23:17.170Z,27.06
2023-04-12T15:26:22.137Z,27.03
2023-04-12T15:29:28.075Z,27.03
2023-04-12T15:32:36.275Z,27.83
2023-04-12T15:35:41.077Z,27.41
2023-04-12T15:38:44.899Z,28.66
2023-04-12T15:41:50.095Z,29.94
2023-04-12T15:44:53.625Z,30.53
2023-04-12T15:47:59.391Z,30.22
2023-04-12T15:51:03.586Z,31.99
2023-04-12T15:54:07.593Z,34.24
2023-04-12T15:57:12.611Z,36.07
2023-04-12T16:00:24.351Z,36.23
2023-04-12T16:03:27.842Z,35.73
2023-04-12T16:06:35.011Z,36.96
2023-04-12T16:09:40.873Z,35.66
2023-04-12T16:12:48.559Z,33.38
2023-04-12T16:15:52.802Z,32.03
2023-04-12T16:18:57.156Z,32.55
2023-04-12T16:22:01.910Z,32.85
2023-04-12T16:25:06.676Z,32.10
2023-04-12T16:28:12.714Z,32.66
2023-04-12T16:31:16.926Z,33.80
2023-04-12T16:34:22.016Z,35.27
2023-04-12T16:37:28.989Z,36.96
2023-04-12T16:40:32.437Z,38.76
2023-04-12T16:43:37.617Z,39.01
2023-04-12T16:46:41.531Z,37.91
2023-04-12T16:49:45.335Z,37.13
2023-04-12T16:52:48.885Z,36.90
2023-04-12T16:55:52.529Z,38.24
2023-04-12T16:58:59.010Z,39.80
2023-04-12T17:02:02.779Z,41.35
2023-04-12T17:05:07.576Z,42.46
2023-04-12T17:08:11.458Z,43.29
2023-04-12T17:11:15.530Z,43.92
2023-04-12T17:14:21.148Z,44.71
2023-04-12T17:17:24.979Z,45.61
2023-04-12T17:20:30.394Z,45.68
2023-04-12T17:23:34.114Z,46.07
2023-04-12T17:26:38.558Z,47.02
2023-04-12T17:29:44.692Z,46.92
2023-04-12T17:32:49.413Z,47.49
2023-04-12T17:35:53.239Z,47.86
2023-04-12T17:38:57.261Z,48.92
2023-04-12T17:42:01.291Z,48.57
2023-04-12T17:45:11.258Z,49.45
2023-04-12T17:48:15.430Z,49.70
2023-04-12T17:51:19.134Z,49.90
2023-04-12T17:54:23.270Z,50.46
2023-04-12T17:57:27.672Z,50.74
2023-04-12T18:00:32.773Z,51.08
2023-04-12T18:03:36.817Z,51.14
2023-04-12T18:06:41.860Z,50.99
2023-04-12T18:09:46.218Z,52.07
2023-04-12T18:12:50.255Z,51.96
2023-04-12T18:15:55.804Z,52.49
2023-04-12T18:18:59.997Z,52.31
2023-04-12T18:22:04.742Z,52.22
2023-04-12T18:25:09.682Z,52.61
2023-04-12T18:28:13.318Z,53.19
2023-04-12T18:31:18.929Z,53.79
2023-04-12T18:34:23.128Z,53.90
2023-04-12T18:37:26.776Z,53.77
2023-04-12T18:40:30.871Z,54.02
2023-04-12T18:43:34.518Z,54.84
2023-04-12T18:46:40.078Z,54.92
2023-04-12T18:49:43.860Z,54.87
2023-04-12T18:52:47.763Z,55.16
2023-04-12T18:55:52.222Z,55.67
2023-04-12T18:58:57.136Z,55.53
2023-04-12T19:02:02.075Z,55.95
2023-04-12T19:05:06.537Z,56.56
2023-04-12T19:08:12.042Z,56.15
2023-04-12T19:11:16.121Z,56.28
2023-04-12T19:14:19.827Z,56.82
2023-04-12T19:17:27.851Z,56.56
2023-04-12T19:20:31.742Z,57.29
2023-04-12T19:23:35.502Z,57.55
2023-04-12T19:26:46.103Z,57.30
2023-04-12T19:29:51.377Z,57.61
2023-04-12T19:32:56.443Z,57.73
2023-04-12T19:36:00.613Z,58.27
2023-04-12T19:39:04.485Z,58.38
2023-04-12T19:42:08.774Z,58.39
2023-04-12T19:45:13.231Z,58.73
2023-04-12T19:48:18.705Z,58.02
2023-04-12T19:51:22.760Z,58.39
2023-04-12T19:54:26.895Z,58.96
2023-04-12T19:57:31.035Z,59.22
2023-04-12T20:00:34.780Z,59.59
2023-04-12T20:03:43.638Z,59.30
2023-04-12T20:06:48.262Z,59.43
2023-04-12T20:09:51.728Z,60.05
2023-04-12T20:12:55.821Z,59.41
2023-04-12T20:16:00.757Z,59.31
2023-04-12T20:19:06.464Z,60.20
2023-04-12T20:22:10.271Z,59.74
2023-04-12T20:25:14.704Z,60.21
2023-04-12T20:28:18.463Z,60.04
2023-04-12T20:31:22.568Z,60.21
2023-04-12T20:34:27.946Z,60.49
2023-04-12T20:37:32.679Z,61.62
2023-04-12T20:40:36.124Z,60.57
2023-04-12T20:43:45.062Z,61.39
2023-04-12T20:46:48.867Z,61.72
2023-04-12T20:49:56.129Z,61.01
2023-04-12T20:53:00.041Z,62.02
2023-04-12T20:56:04.479Z,62.19
2023-04-12T20:59:08.137Z,61.89
2023-04-12T21:02:13.292Z,62.03
2023-04-12T21:05:18.265Z,62.01
2023-04-12T21:08:22.720Z,62.18
2023-04-12T21:11:27.231Z,61.54
2023-04-12T21:14:31.187Z,61.56
2023-04-12T21:17:35.086Z,62.16
2023-04-12T21:20:40.244Z,62.25
2023-04-12T21:23:43.927Z,62.13
2023-04-12T21:26:57.190Z,63.09
2023-04-12T21:30:01.275Z,62.31
2023-04-12T21:33:05.273Z,62.69
2023-04-12T21:36:12.961Z,62.80
2023-04-12T21:39:17.106Z,62.23
2023-04-12T21:42:20.650Z,63.13
2023-04-12T21:45:25.637Z,63.27
2023-04-12T21:48:29.371Z,63.24
2023-04-12T21:51:34.787Z,62.93
2023-04-12T21:54:38.334Z,63.40
2023-04-12T21:57:42.314Z,63.46
2023-04-12T22:00:46.116Z,63.16
2023-04-12T22:03:49.943Z,63.42
2023-04-12T22:06:55.750Z,63.42
2023-04-12T22:09:59.895Z,63.93
2023-04-12T22:13:03.838Z,63.73
2023-04-12T22:16:10.737Z,63.78
2023-04-12T22:19:16.239Z,63.89
2023-04-12T22:22:21.646Z,64.05
2023-04-12T22:25:25.437Z,63.74
2023-04-12T22:28:29.154Z,63.87
2023-04-12T22:31:32.691Z,64.26
2023-04-12T22:34:38.050Z,63.24
2023-04-12T22:37:43.050Z,63.69
2023-04-12T22:40:47.893Z,64.05
2023-04-12T22:44:01.393Z,64.24
2023-04-12T22:47:07.761Z,63.99
2023-04-12T22:50:12.808Z,63.46
2023-04-12T22:53:18.293Z,63.73
2023-04-12T22:56:21.984Z,64.24
2023-04-12T22:59:25.827Z,63.74
2023-04-12T23:02:29.337Z,64.04
2023-04-12T23:05:33.872Z,64.58
2023-04-12T23:08:38.670Z,64.58
2023-04-12T23:11:43.775Z,65.18
2023-04-12T23:14:47.222Z,64.34
2023-04-12T23:17:51.020Z,64.14
2023-04-12T23:20:55.122Z,64.11
2023-04-12T23:24:00.588Z,64.85
2023-04-12T23:27:04.155Z,64.65
2023-04-12T23:30:10.889Z,65.06
2023-04-12T23:33:18.164Z,64.81
2023-04-12T23:36:22.336Z,65.25
2023-04-12T23:39:28.424Z,65.22
2023-04-12T23:42:33.992Z,65.16
2023-04-12T23:45:38.100Z,64.74
2023-04-12T23:48:42.320Z,64.84
2023-04-12T23:51:45.935Z,65.31
2023-04-12T23:54:51.311Z,65.27
2023-04-12T23:57:54.925Z,65.58
